createdAt,value
2019-06-08T00:00:42.378Z,1005.71
2019-06-08T00:01:42.312Z,1005.72
2019-06-08T00:02:42.294Z,1005.70
2019-06-08T00:03:42.300Z,1005.77
2019-06-08T00:04:42.295Z,1005.76
2019-06-08T00:05:42.273Z,1005.74
2019-06-08T00:06:42.292Z,1005.72
2019-06-08T00:07:42.233Z,1005.71
2019-06-08T00:08:42.241Z,1005.74
2019-06-08T00:09:42.228Z,1005.70
2019-06-08T00:10:42.221Z,1005.76
2019-06-08T00:11:42.214Z,1005.79
2019-06-08T00:12:42.185Z,1005.73
2019-06-08T00:13:42.177Z,1005.70
2019-06-08T00:14:42.164Z,1005.70
2019-06-08T00:15:42.197Z,1005.83
2019-06-08T00:16:42.182Z,1005.72
2019-06-08T00:17:42.144Z,1005.77
2019-06-08T00:18:42.113Z,1005.85
2019-06-08T00:19:42.122Z,1005.70
2019-06-08T00:20:42.101Z,1005.83
2019-06-08T00:21:42.137Z,1005.79
2019-06-08T00:22:42.092Z,1005.92
2019-06-08T00:23:42.087Z,1005.84
2019-06-08T00:24:42.059Z,1005.98
2019-06-08T00:25:42.043Z,1005.84
2019-06-08T00:26:42.098Z,1006.07
2019-06-08T00:27:42.037Z,1006.05
2019-06-08T00:28:42.003Z,1006.01
2019-06-08T00:29:41.996Z,1006.10
2019-06-08T00:30:41.984Z,1005.95
2019-06-08T00:31:42.005Z,1006.00
2019-06-08T00:32:42.005Z,1005.99
2019-06-08T00:33:41.956Z,1005.97
2019-06-08T00:34:41.973Z,1006.01
2019-06-08T00:35:41.952Z,1005.98
2019-06-08T00:36:41.930Z,1005.93
2019-06-08T00:37:41.937Z,1005.97
2019-06-08T00:38:41.922Z,1005.97
2019-06-08T00:39:41.895Z,1006.04
2019-06-08T00:40:41.876Z,1006.03
2019-06-08T00:41:41.867Z,1006.13
2019-06-08T00:42:41.895Z,1006.14
2019-06-08T00:43:41.836Z,1006.06
2019-06-08T00:44:41.847Z,1006.14
2019-06-08T00:45:41.826Z,1006.10
2019-06-08T00:46:41.849Z,1006.21
2019-06-08T00:47:48.099Z,1006.18
2019-06-08T00:48:42.804Z,1006.07
2019-06-08T00:49:41.777Z,1006.19
2019-06-08T00:50:41.768Z,1006.12
2019-06-08T00:51:41.772Z,1006.20
2019-06-08T00:52:41.788Z,1006.08
2019-06-08T00:53:41.752Z,1006.16
2019-06-08T00:54:41.738Z,1006.15
2019-06-08T00:55:41.746Z,1006.24
2019-06-08T00:56:41.706Z,1006.28
2019-06-08T00:57:41.721Z,1006.20
2019-06-08T00:58:41.678Z,1006.30
2019-06-08T00:59:41.678Z,1006.26
2019-06-08T01:00:41.681Z,1006.33
2019-06-08T01:01:41.678Z,1006.30
2019-06-08T01:02:41.684Z,1006.23
2019-06-08T01:03:41.649Z,1006.43
2019-06-08T01:04:41.622Z,1006.45
2019-06-08T01:05:41.610Z,1006.43
2019-06-08T01:06:41.599Z,1006.37
2019-06-08T01:07:41.615Z,1006.42
2019-06-08T01:08:41.600Z,1006.41
2019-06-08T01:09:41.560Z,1006.43
2019-06-08T01:10:41.551Z,1006.52
2019-06-08T01:11:41.553Z,1006.52
2019-06-08T01:12:41.576Z,1006.52
2019-06-08T01:13:41.600Z,1006.48
2019-06-08T01:14:41.490Z,1006.40
2019-06-08T01:15:41.496Z,1006.43
2019-06-08T01:16:41.480Z,1006.49
2019-06-08T01:17:41.480Z,1006.52
2019-06-08T01:18:41.487Z,1006.52
2019-06-08T01:19:41.461Z,1006.48
2019-06-08T01:20:41.440Z,1006.48
2019-06-08T01:21:41.441Z,1006.62
2019-06-08T01:22:41.418Z,1006.49
2019-06-08T01:23:41.432Z,1006.53
2019-06-08T01:24:41.434Z,1006.60
2019-06-08T01:25:41.395Z,1006.58
2019-06-08T01:26:41.377Z,1006.51
2019-06-08T01:27:41.395Z,1006.60
2019-06-08T01:28:41.383Z,1006.62
2019-06-08T01:29:41.403Z,1006.56
2019-06-08T01:30:41.339Z,1006.59
2019-06-08T01:31:41.325Z,1006.45
2019-06-08T01:32:41.314Z,1006.54
2019-06-08T01:33:41.293Z,1006.56
2019-06-08T01:34:41.313Z,1006.58
2019-06-08T01:35:41.289Z,1006.58
2019-06-08T01:36:41.262Z,1006.60
2019-06-08T01:37:41.262Z,1006.53
2019-06-08T01:38:41.250Z,1006.63
2019-06-08T01:39:41.264Z,1006.73
2019-06-08T01:40:41.232Z,1006.68
2019-06-08T01:41:41.226Z,1006.67
2019-06-08T01:42:41.207Z,1006.70
2019-06-08T01:43:41.184Z,1006.73
2019-06-08T01:44:41.212Z,1006.74
2019-06-08T01:45:41.161Z,1006.79
2019-06-08T01:46:41.197Z,1006.88
2019-06-08T01:47:41.151Z,1006.90
2019-06-08T01:48:41.139Z,1006.84
2019-06-08T01:49:41.165Z,1006.80
2019-06-08T01:50:41.113Z,1006.82
2019-06-08T01:51:41.105Z,1006.81
2019-06-08T01:52:41.098Z,1006.93
2019-06-08T01:53:41.074Z,1006.86
2019-06-08T01:54:41.106Z,1006.94
2019-06-08T01:55:41.075Z,1006.81
2019-06-08T01:56:41.046Z,1007.12
2019-06-08T01:57:41.038Z,1006.90
2019-06-08T01:58:41.024Z,1007.02
2019-06-08T01:59:41.048Z,1007.11
2019-06-08T02:00:41.909Z,1007.12
2019-06-08T02:01:40.994Z,1007.10
2019-06-08T02:02:40.992Z,1007.04
2019-06-08T02:03:40.965Z,1007.06
2019-06-08T02:04:40.981Z,1007.13
2019-06-08T02:05:40.966Z,1007.14
2019-06-08T02:06:40.941Z,1007.10
2019-06-08T02:07:40.936Z,1007.10
2019-06-08T02:08:40.928Z,1007.06
2019-06-08T02:09:40.946Z,1007.14
2019-06-08T02:10:40.914Z,1007.14
2019-06-08T02:11:40.930Z,1007.06
2019-06-08T02:12:40.875Z,1007.18
2019-06-08T02:13:40.869Z,1007.20
2019-06-08T02:14:40.886Z,1007.25
2019-06-08T02:15:40.857Z,1007.18
2019-06-08T02:16:40.885Z,1007.17
2019-06-08T02:17:40.824Z,1007.32
2019-06-08T02:18:50.191Z,1007.30
2019-06-08T02:19:41.795Z,1007.25
2019-06-08T02:20:40.808Z,1007.24
2019-06-08T02:21:40.806Z,1007.37
2019-06-08T02:22:40.766Z,1007.30
2019-06-08T02:23:40.758Z,1007.35
2019-06-08T02:24:40.754Z,1007.28
2019-06-08T02:25:40.736Z,1007.30
2019-06-08T02:26:40.796Z,1007.34
2019-06-08T02:27:40.706Z,1007.39
2019-06-08T02:28:40.707Z,1007.29
2019-06-08T02:29:40.701Z,1007.31
2019-06-08T02:30:41.841Z,1007.32
2019-06-08T02:31:42.008Z,1007.37
2019-06-08T02:32:40.722Z,1007.39
2019-06-08T02:33:40.652Z,1007.45
2019-06-08T02:34:41.354Z,1007.49
2019-06-08T02:35:41.762Z,1007.44
2019-06-08T02:36:40.876Z,1007.40
2019-06-08T02:37:40.627Z,1007.34
2019-06-08T02:38:40.602Z,1007.41
2019-06-08T02:39:40.597Z,1007.38
2019-06-08T02:40:40.618Z,1007.55
2019-06-08T02:41:40.577Z,1007.51
2019-06-08T02:42:40.572Z,1007.48
2019-06-08T02:43:40.590Z,1007.63
2019-06-08T02:44:40.774Z,1007.46
2019-06-08T02:45:40.636Z,1007.41
2019-06-08T02:46:40.809Z,1007.53
2019-06-08T02:47:41.106Z,1007.57
2019-06-08T02:49:00.477Z,1007.60
2019-06-08T02:49:41.475Z,1007.58
2019-06-08T02:50:40.507Z,1007.49
2019-06-08T02:51:41.159Z,1007.64
2019-06-08T02:52:40.860Z,1007.51
2019-06-08T02:53:41.570Z,1007.52
2019-06-08T02:54:41.151Z,1007.65
2019-06-08T02:55:40.437Z,1007.60
2019-06-08T02:56:41.068Z,1007.60
2019-06-08T02:57:40.420Z,1007.72
2019-06-08T02:58:40.782Z,1007.56
2019-06-08T02:59:41.076Z,1007.72
2019-06-08T03:00:40.360Z,1007.76
2019-06-08T03:01:40.833Z,1007.70
2019-06-08T03:02:40.611Z,1007.75
2019-06-08T03:03:40.444Z,1007.77
2019-06-08T03:04:41.254Z,1007.85
2019-06-08T03:05:40.567Z,1007.58
2019-06-08T03:06:41.508Z,1007.69
2019-06-08T03:07:41.247Z,1007.77
2019-06-08T03:08:43.539Z,1007.85
2019-06-08T03:09:41.110Z,1007.88
2019-06-08T03:10:41.313Z,1007.78
2019-06-08T03:11:41.323Z,1007.82
2019-06-08T03:12:42.398Z,1007.88
2019-06-08T03:13:42.385Z,1007.80
2019-06-08T03:14:41.972Z,1007.87
2019-06-08T03:15:41.507Z,1007.93
2019-06-08T03:16:41.546Z,1007.95
2019-06-08T03:17:41.865Z,1007.97
2019-06-08T03:18:42.342Z,1007.97
2019-06-08T03:19:41.776Z,1008.04
2019-06-08T03:20:42.266Z,1007.98
2019-06-08T03:21:40.965Z,1008.00
2019-06-08T03:22:41.965Z,1008.04
2019-06-08T03:23:41.529Z,1008.09
2019-06-08T03:24:41.500Z,1008.14
2019-06-08T03:25:47.207Z,1008.07
2019-06-08T03:26:41.926Z,1008.03
2019-06-08T03:27:40.770Z,1008.09
2019-06-08T03:28:41.690Z,1008.09
2019-06-08T03:29:41.643Z,1008.10
2019-06-08T03:30:47.401Z,1008.19
2019-06-08T03:31:53.503Z,1008.14
2019-06-08T03:32:50.634Z,1008.06
2019-06-08T03:33:50.847Z,1008.28
2019-06-08T03:34:51.191Z,1008.15
2019-06-08T03:35:52.533Z,1008.23
2019-06-08T03:36:53.630Z,1008.30
2019-06-08T03:37:42.838Z,1008.25
2019-06-08T03:38:40.758Z,1008.18
2019-06-08T03:39:41.294Z,1008.29
2019-06-08T03:40:40.635Z,1008.28
2019-06-08T03:41:40.450Z,1008.29
2019-06-08T03:42:39.940Z,1008.31
2019-06-08T03:43:40.806Z,1008.36
2019-06-08T03:44:40.448Z,1008.33
2019-06-08T03:45:40.820Z,1008.33
2019-06-08T03:46:41.220Z,1008.23
2019-06-08T03:47:41.812Z,1008.37
2019-06-08T03:48:41.645Z,1008.30
2019-06-08T03:49:50.348Z,1008.36
2019-06-08T03:50:42.022Z,1008.36
2019-06-08T03:51:43.556Z,1008.35
2019-06-08T03:52:42.051Z,1008.34
2019-06-08T03:53:40.526Z,1008.37
2019-06-08T03:54:41.082Z,1008.35
2019-06-08T03:55:40.538Z,1008.43
2019-06-08T03:56:40.190Z,1008.21
2019-06-08T03:57:40.413Z,1008.43
2019-06-08T03:58:40.673Z,1008.49
2019-06-08T03:59:40.958Z,1008.46
2019-06-08T04:00:40.492Z,1008.45
2019-06-08T04:01:39.851Z,1008.46
2019-06-08T04:02:40.433Z,1008.44
2019-06-08T04:03:40.356Z,1008.60
2019-06-08T04:04:40.241Z,1008.45
2019-06-08T04:05:40.786Z,1008.54
2019-06-08T04:06:39.890Z,1008.43
2019-06-08T04:07:39.909Z,1008.49
2019-06-08T04:08:40.799Z,1008.48
2019-06-08T04:09:39.844Z,1008.52
2019-06-08T04:10:39.975Z,1008.53
2019-06-08T04:11:40.202Z,1008.49
2019-06-08T04:12:40.015Z,1008.54
2019-06-08T04:13:39.898Z,1008.58
2019-06-08T04:14:39.871Z,1008.55
2019-06-08T04:15:40.414Z,1008.51
2019-06-08T04:16:40.190Z,1008.55
2019-06-08T04:17:39.856Z,1008.66
2019-06-08T04:18:40.369Z,1008.56
2019-06-08T04:19:39.878Z,1008.60
2019-06-08T04:20:40.346Z,1008.49
2019-06-08T04:21:40.297Z,1008.55
2019-06-08T04:22:40.343Z,1008.56
2019-06-08T04:23:40.524Z,1008.63
2019-06-08T04:24:40.174Z,1008.53
2019-06-08T04:25:40.636Z,1008.61
2019-06-08T04:26:40.619Z,1008.67
2019-06-08T04:27:40.425Z,1008.56
2019-06-08T04:28:40.556Z,1008.72
2019-06-08T04:29:39.658Z,1008.56
2019-06-08T04:30:40.991Z,1008.62
2019-06-08T04:31:39.694Z,1008.62
2019-06-08T04:32:40.688Z,1008.65
2019-06-08T04:33:40.269Z,1008.78
2019-06-08T04:34:40.887Z,1008.67
2019-06-08T04:35:40.235Z,1008.67
2019-06-08T04:36:41.127Z,1008.69
2019-06-08T04:37:40.403Z,1008.66
2019-06-08T04:38:41.205Z,1008.69
2019-06-08T04:39:40.256Z,1008.64
2019-06-08T04:40:40.022Z,1008.72
2019-06-08T04:41:40.785Z,1008.73
2019-06-08T04:42:39.455Z,1008.75
2019-06-08T04:43:40.391Z,1008.73
2019-06-08T04:44:40.503Z,1008.71
2019-06-08T04:45:40.895Z,1008.62
2019-06-08T04:46:40.761Z,1008.70
2019-06-08T04:47:41.069Z,1008.77
2019-06-08T04:48:40.633Z,1008.77
2019-06-08T04:49:40.028Z,1008.84
2019-06-08T04:50:40.706Z,1008.78
2019-06-08T04:51:40.614Z,1008.83
2019-06-08T04:52:40.791Z,1008.86
2019-06-08T04:53:40.731Z,1008.92
2019-06-08T04:54:40.690Z,1009.05
2019-06-08T04:55:40.789Z,1008.88
2019-06-08T04:56:40.872Z,1008.93
2019-06-08T04:57:39.996Z,1009.00
2019-06-08T04:58:39.783Z,1009.09
2019-06-08T04:59:39.678Z,1009.00
2019-06-08T05:00:41.085Z,1009.02
2019-06-08T05:01:40.831Z,1009.04
2019-06-08T05:02:39.771Z,1009.02
2019-06-08T05:03:39.380Z,1009.06
2019-06-08T05:04:39.065Z,1009.15
2019-06-08T05:05:39.383Z,1009.09
2019-06-08T05:06:39.153Z,1009.09
2019-06-08T05:07:39.820Z,1009.03
2019-06-08T05:08:39.118Z,1009.13
2019-06-08T05:09:39.181Z,1009.09
2019-06-08T05:10:39.307Z,1009.09
2019-06-08T05:11:39.141Z,1009.13
2019-06-08T05:12:39.258Z,1009.18
2019-06-08T05:13:39.222Z,1009.27
2019-06-08T05:14:39.140Z,1009.34
2019-06-08T05:15:39.165Z,1009.13
2019-06-08T05:16:39.146Z,1009.25
2019-06-08T05:17:39.361Z,1009.31
2019-06-08T05:18:39.213Z,1009.29
2019-06-08T05:19:39.268Z,1009.30
2019-06-08T05:20:41.442Z,1009.37
2019-06-08T05:21:39.525Z,1009.30
2019-06-08T05:22:39.399Z,1009.29
2019-06-08T05:23:39.294Z,1009.26
2019-06-08T05:24:39.580Z,1009.41
2019-06-08T05:25:39.132Z,1009.35
2019-06-08T05:26:39.222Z,1009.49
2019-06-08T05:27:39.370Z,1009.46
2019-06-08T05:28:39.108Z,1009.43
2019-06-08T05:29:39.186Z,1009.37
2019-06-08T05:30:39.285Z,1009.47
2019-06-08T05:31:39.394Z,1009.39
2019-06-08T05:32:39.414Z,1009.49
2019-06-08T05:33:39.227Z,1009.45
2019-06-08T05:34:39.363Z,1009.42
2019-06-08T05:35:39.425Z,1009.42
2019-06-08T05:36:39.361Z,1009.47
2019-06-08T05:37:39.464Z,1009.42
2019-06-08T05:38:39.465Z,1009.51
2019-06-08T05:39:39.510Z,1009.40
2019-06-08T05:40:39.441Z,1009.48
2019-06-08T05:41:39.396Z,1009.44
2019-06-08T05:42:40.598Z,1009.51
2019-06-08T05:43:39.714Z,1009.42
2019-06-08T05:44:39.608Z,1009.51
2019-06-08T05:45:39.603Z,1009.38
2019-06-08T05:46:39.560Z,1009.50
2019-06-08T05:47:39.751Z,1009.43
2019-06-08T05:48:39.764Z,1009.45
2019-06-08T05:49:39.729Z,1009.50
2019-06-08T05:50:55.855Z,1009.44
2019-06-08T05:51:39.805Z,1009.47
2019-06-08T05:52:39.764Z,1009.40
2019-06-08T05:53:39.605Z,1009.53
2019-06-08T05:54:39.681Z,1009.51
2019-06-08T05:55:39.710Z,1009.62
2019-06-08T05:56:39.730Z,1009.58
2019-06-08T05:57:38.494Z,1009.57
2019-06-08T05:58:39.796Z,1009.55
2019-06-08T05:59:39.942Z,1009.70
2019-06-08T06:00:38.425Z,1009.58
2019-06-08T06:01:38.416Z,1009.61
2019-06-08T06:02:38.434Z,1009.80
2019-06-08T06:03:38.400Z,1009.69
2019-06-08T06:04:38.402Z,1009.81
2019-06-08T06:05:38.369Z,1009.69
2019-06-08T06:06:38.365Z,1009.75
2019-06-08T06:07:38.377Z,1009.84
2019-06-08T06:08:38.329Z,1009.75
2019-06-08T06:09:38.329Z,1009.77
2019-06-08T06:10:38.325Z,1009.82
2019-06-08T06:11:38.318Z,1009.88
2019-06-08T06:12:38.350Z,1009.87
2019-06-08T06:13:38.302Z,1009.88
2019-06-08T06:14:38.275Z,1009.91
2019-06-08T06:15:38.256Z,1009.86
2019-06-08T06:16:38.259Z,1009.98
2019-06-08T06:17:38.235Z,1009.94
2019-06-08T06:18:38.257Z,1010.02
2019-06-08T06:19:38.211Z,1009.97
2019-06-08T06:20:38.227Z,1010.08
2019-06-08T06:21:38.217Z,1010.01
2019-06-08T06:22:38.191Z,1009.98
2019-06-08T06:23:38.246Z,1010.02
2019-06-08T06:24:38.172Z,1009.94
2019-06-08T06:25:38.183Z,1009.98
2019-06-08T06:26:38.190Z,1010.02
2019-06-08T06:27:38.148Z,1010.09
2019-06-08T06:28:38.170Z,1010.09
2019-06-08T06:29:38.118Z,1010.03
2019-06-08T06:30:38.130Z,1010.16
2019-06-08T06:31:38.098Z,1010.17
2019-06-08T06:32:38.077Z,1010.12
2019-06-08T06:33:38.165Z,1010.19
2019-06-08T06:34:38.068Z,1010.13
2019-06-08T06:35:38.067Z,1010.19
2019-06-08T06:36:38.038Z,1010.20
2019-06-08T06:37:38.050Z,1010.29
2019-06-08T06:38:38.028Z,1010.32
2019-06-08T06:39:38.042Z,1010.29
2019-06-08T06:40:38.007Z,1010.32
2019-06-08T06:41:38.002Z,1010.36
2019-06-08T06:42:37.973Z,1010.26
2019-06-08T06:43:37.993Z,1010.31
2019-06-08T06:44:37.958Z,1010.24
2019-06-08T06:45:37.988Z,1010.36
2019-06-08T06:46:37.956Z,1010.34
2019-06-08T06:47:37.941Z,1010.41
2019-06-08T06:48:37.946Z,1010.44
2019-06-08T06:49:37.916Z,1010.36
2019-06-08T06:50:37.889Z,1010.50
2019-06-08T06:51:37.898Z,1010.50
2019-06-08T06:52:37.881Z,1010.50
2019-06-08T06:53:37.910Z,1010.54
2019-06-08T06:54:37.845Z,1010.48
2019-06-08T06:55:37.900Z,1010.39
2019-06-08T06:56:37.820Z,1010.39
2019-06-08T06:57:37.851Z,1010.45
2019-06-08T06:58:37.799Z,1010.38
2019-06-08T06:59:37.856Z,1010.59
2019-06-08T07:00:37.789Z,1010.49
2019-06-08T07:01:37.769Z,1010.59
2019-06-08T07:02:37.763Z,1010.59
2019-06-08T07:03:37.790Z,1010.62
2019-06-08T07:04:37.765Z,1010.63
2019-06-08T07:05:37.730Z,1010.51
2019-06-08T07:06:37.724Z,1010.53
2019-06-08T07:07:37.726Z,1010.63
2019-06-08T07:08:37.692Z,1010.58
2019-06-08T07:09:37.745Z,1010.48
2019-06-08T07:10:37.714Z,1010.69
2019-06-08T07:11:37.663Z,1010.88
2019-06-08T07:12:37.710Z,1010.75
2019-06-08T07:13:37.650Z,1010.82
2019-06-08T07:14:37.663Z,1010.86
2019-06-08T07:15:41.764Z,1010.82
2019-06-08T07:16:37.644Z,1010.93
2019-06-08T07:17:37.618Z,1010.87
2019-06-08T07:18:37.602Z,1010.90
2019-06-08T07:19:37.673Z,1010.84
2019-06-08T07:20:37.575Z,1010.82
2019-06-08T07:21:41.877Z,1010.84
2019-06-08T07:22:37.581Z,1010.77
2019-06-08T07:23:37.532Z,1010.92
2019-06-08T07:24:37.583Z,1010.95
2019-06-08T07:25:37.523Z,1010.87
2019-06-08T07:26:37.502Z,1010.90
2019-06-08T07:27:37.512Z,1010.86
2019-06-08T07:28:37.530Z,1010.92
2019-06-08T07:29:37.475Z,1010.95
2019-06-08T07:30:37.484Z,1011.04
2019-06-08T07:31:37.470Z,1011.13
2019-06-08T07:32:37.451Z,1010.98
2019-06-08T07:33:37.432Z,1011.02
2019-06-08T07:34:37.424Z,1011.03
2019-06-08T07:35:37.455Z,1011.13
2019-06-08T07:36:37.486Z,1011.16
2019-06-08T07:37:37.389Z,1011.13
2019-06-08T07:38:37.371Z,1011.06
2019-06-08T07:39:37.354Z,1011.09
2019-06-08T07:40:37.374Z,1011.18
2019-06-08T07:41:37.397Z,1011.26
2019-06-08T07:42:37.343Z,1011.19
2019-06-08T07:43:37.334Z,1011.26
2019-06-08T07:44:37.333Z,1011.36
2019-06-08T07:45:37.324Z,1011.37
2019-06-08T07:46:37.285Z,1011.19
2019-06-08T07:47:37.292Z,1011.23
2019-06-08T07:48:37.265Z,1011.37
2019-06-08T07:49:37.266Z,1011.39
2019-06-08T07:50:37.284Z,1011.25
2019-06-08T07:51:37.234Z,1011.26
2019-06-08T07:52:37.227Z,1011.28
2019-06-08T07:53:37.204Z,1011.21
2019-06-08T07:54:37.202Z,1011.30
2019-06-08T07:55:37.276Z,1011.33
2019-06-08T07:56:37.175Z,1011.50
2019-06-08T07:57:37.165Z,1011.32
2019-06-08T07:58:37.155Z,1011.37
2019-06-08T07:59:37.150Z,1011.33
2019-06-08T08:00:37.173Z,1011.32
2019-06-08T08:01:37.165Z,1011.45
2019-06-08T08:02:37.123Z,1011.32
2019-06-08T08:03:37.105Z,1011.41
2019-06-08T08:04:37.095Z,1011.40
2019-06-08T08:05:37.105Z,1011.45
2019-06-08T08:06:37.115Z,1011.45
2019-06-08T08:07:37.096Z,1011.43
2019-06-08T08:08:37.134Z,1011.31
2019-06-08T08:09:37.051Z,1011.45
2019-06-08T08:10:37.031Z,1011.53
2019-06-08T08:11:37.047Z,1011.46
2019-06-08T08:12:37.027Z,1011.47
2019-06-08T08:13:37.008Z,1011.46
2019-06-08T08:14:36.977Z,1011.51
2019-06-08T08:15:37.028Z,1011.38
2019-06-08T08:16:37.036Z,1011.46
2019-06-08T08:17:36.998Z,1011.56
2019-06-08T08:18:36.947Z,1011.51
2019-06-08T08:19:36.937Z,1011.51
2019-06-08T08:20:36.946Z,1011.42
2019-06-08T08:21:38.019Z,1011.37
2019-06-08T08:22:38.191Z,1011.46
2019-06-08T08:23:38.236Z,1011.58
2019-06-08T08:24:38.627Z,1011.53
2019-06-08T08:25:37.904Z,1011.47
2019-06-08T08:26:39.152Z,1011.88
2019-06-08T08:27:37.552Z,1011.51
2019-06-08T08:28:37.527Z,1011.53
2019-06-08T08:29:38.286Z,1011.52
2019-06-08T08:30:37.651Z,1011.57
2019-06-08T08:31:37.432Z,1011.63
2019-06-08T08:32:37.968Z,1011.63
2019-06-08T08:33:37.962Z,1011.60
2019-06-08T08:34:38.160Z,1011.65
2019-06-08T08:35:38.125Z,1011.59
2019-06-08T08:36:38.092Z,1011.64
2019-06-08T08:37:38.071Z,1011.66
2019-06-08T08:38:38.156Z,1011.49
2019-06-08T08:39:37.611Z,1011.56
2019-06-08T08:40:38.852Z,1011.73
2019-06-08T08:41:38.802Z,1011.53
2019-06-08T08:42:38.510Z,1011.54
2019-06-08T08:43:37.740Z,1011.59
2019-06-08T08:44:37.960Z,1011.59
2019-06-08T08:45:37.328Z,1011.62
2019-06-08T08:46:38.649Z,1011.58
2019-06-08T08:47:38.701Z,1011.65
2019-06-08T08:48:37.730Z,1011.69
2019-06-08T08:49:38.001Z,1011.73
2019-06-08T08:50:38.309Z,1011.74
2019-06-08T08:51:37.835Z,1011.75
2019-06-08T08:52:40.364Z,1011.87
2019-06-08T08:53:37.449Z,1011.75
2019-06-08T08:54:37.734Z,1011.77
2019-06-08T08:55:37.930Z,1011.77
2019-06-08T08:56:38.362Z,1011.90
2019-06-08T08:57:38.576Z,1011.85
2019-06-08T08:58:38.055Z,1011.89
2019-06-08T08:59:38.181Z,1011.85
2019-06-08T09:00:40.844Z,1011.83
2019-06-08T09:01:38.342Z,1011.97
2019-06-08T09:02:37.487Z,1011.91
2019-06-08T09:03:39.364Z,1011.96
2019-06-08T09:04:38.029Z,1011.98
2019-06-08T09:05:38.180Z,1012.04
2019-06-08T09:06:38.083Z,1011.97
2019-06-08T09:07:38.587Z,1011.97
2019-06-08T09:08:37.697Z,1011.96
2019-06-08T09:09:38.445Z,1012.08
2019-06-08T09:10:38.220Z,1012.06
2019-06-08T09:11:40.798Z,1012.00
2019-06-08T09:12:37.657Z,1012.09
2019-06-08T09:13:37.720Z,1012.13
2019-06-08T09:14:41.092Z,1012.20
2019-06-08T09:15:37.872Z,1012.07
2019-06-08T09:16:38.404Z,1012.20
2019-06-08T09:17:38.599Z,1012.19
2019-06-08T09:18:37.530Z,1012.20
2019-06-08T09:19:38.282Z,1012.35
2019-06-08T09:20:38.058Z,1012.28
2019-06-08T09:21:38.213Z,1012.24
2019-06-08T09:22:51.914Z,1012.30
2019-06-08T09:23:37.849Z,1012.22
2019-06-08T09:24:38.771Z,1012.24
2019-06-08T09:25:37.369Z,1012.37
2019-06-08T09:26:38.185Z,1012.37
2019-06-08T09:27:38.123Z,1012.45
2019-06-08T09:28:38.675Z,1012.51
2019-06-08T09:29:38.597Z,1012.51
2019-06-08T09:30:38.330Z,1012.39
2019-06-08T09:31:38.931Z,1012.43
2019-06-08T09:32:38.229Z,1012.53
2019-06-08T09:33:38.650Z,1012.49
2019-06-08T09:34:38.363Z,1012.50
2019-06-08T09:35:37.894Z,1012.52
2019-06-08T09:36:37.571Z,1012.71
2019-06-08T09:37:37.563Z,1012.59
2019-06-08T09:38:38.533Z,1012.63
2019-06-08T09:39:38.361Z,1012.58
2019-06-08T09:40:38.398Z,1012.60
2019-06-08T09:41:38.024Z,1012.65
2019-06-08T09:42:36.070Z,1012.56
2019-06-08T09:43:38.594Z,1012.58
2019-06-08T09:44:37.666Z,1012.63
2019-06-08T09:45:38.039Z,1012.70
2019-06-08T09:46:38.372Z,1012.69
2019-06-08T09:47:38.051Z,1012.74
2019-06-08T09:48:38.029Z,1012.69
2019-06-08T09:49:37.779Z,1012.78
2019-06-08T09:50:38.464Z,1012.66
2019-06-08T09:51:37.889Z,1012.85
2019-06-08T09:52:41.038Z,1012.75
2019-06-08T09:53:41.045Z,1012.71
2019-06-08T09:54:38.243Z,1012.78
2019-06-08T09:55:38.634Z,1012.76
2019-06-08T09:56:37.929Z,1012.79
2019-06-08T09:57:38.312Z,1012.80
2019-06-08T09:58:35.872Z,1012.88
2019-06-08T09:59:38.409Z,1012.85
2019-06-08T10:00:37.889Z,1012.84
2019-06-08T10:01:38.279Z,1012.81
2019-06-08T10:02:35.809Z,1012.86
2019-06-08T10:03:35.793Z,1012.80
2019-06-08T10:04:38.523Z,1012.93
2019-06-08T10:05:35.830Z,1012.98
2019-06-08T10:06:37.679Z,1012.87
2019-06-08T10:07:38.532Z,1012.98
2019-06-08T10:08:38.565Z,1012.76
2019-06-08T10:09:37.987Z,1013.00
2019-06-08T10:10:35.762Z,1012.98
2019-06-08T10:11:37.832Z,1012.93
2019-06-08T10:12:38.191Z,1013.01
2019-06-08T10:13:39.104Z,1013.06
2019-06-08T10:14:37.809Z,1013.11
2019-06-08T10:15:35.764Z,1013.05
2019-06-08T10:16:38.016Z,1013.08
2019-06-08T10:17:37.773Z,1013.12
2019-06-08T10:18:35.648Z,1013.05
2019-06-08T10:19:35.625Z,1013.07
2019-06-08T10:20:38.246Z,1013.08
2019-06-08T10:21:38.358Z,1013.18
2019-06-08T10:22:35.597Z,1013.08
2019-06-08T10:23:38.656Z,1013.14
2019-06-08T10:24:38.815Z,1013.04
2019-06-08T10:25:35.561Z,1013.00
2019-06-08T10:26:37.532Z,1013.04
2019-06-08T10:27:35.544Z,1013.02
2019-06-08T10:28:35.523Z,1013.09
2019-06-08T10:29:38.174Z,1013.05
2019-06-08T10:30:35.494Z,1013.07
2019-06-08T10:31:39.885Z,1013.13
2019-06-08T10:32:38.291Z,1013.07
2019-06-08T10:33:40.281Z,1013.09
2019-06-08T10:34:38.647Z,1013.11
2019-06-08T10:35:38.099Z,1013.08
2019-06-08T10:36:38.167Z,1013.08
2019-06-08T10:37:35.444Z,1013.13
2019-06-08T10:38:38.430Z,1013.16
2019-06-08T10:39:37.906Z,1013.15
2019-06-08T10:40:35.391Z,1013.19
2019-06-08T10:41:35.444Z,1013.27
2019-06-08T10:42:39.813Z,1013.34
2019-06-08T10:43:38.289Z,1013.20
2019-06-08T10:44:38.060Z,1013.29
2019-06-08T10:45:35.356Z,1013.26
2019-06-08T10:46:35.359Z,1013.16
2019-06-08T10:47:37.721Z,1013.34
2019-06-08T10:48:37.525Z,1013.41
2019-06-08T10:49:38.249Z,1013.37
2019-06-08T10:50:35.273Z,1013.38
2019-06-08T10:51:38.215Z,1013.30
2019-06-08T10:52:35.294Z,1013.34
2019-06-08T10:53:48.238Z,1013.37
2019-06-08T10:54:37.844Z,1013.38
2019-06-08T10:55:37.791Z,1013.42
2019-06-08T10:56:38.567Z,1013.31
2019-06-08T10:57:37.382Z,1013.35
2019-06-08T10:58:35.217Z,1013.35
2019-06-08T10:59:37.319Z,1013.23
2019-06-08T11:00:35.196Z,1013.40
2019-06-08T11:01:35.166Z,1013.43
2019-06-08T11:02:37.601Z,1013.40
2019-06-08T11:03:38.661Z,1013.56
2019-06-08T11:04:35.139Z,1013.49
2019-06-08T11:05:35.118Z,1013.52
2019-06-08T11:06:39.829Z,1013.56
2019-06-08T11:07:38.031Z,1013.52
2019-06-08T11:08:35.077Z,1013.61
2019-06-08T11:09:35.095Z,1013.53
2019-06-08T11:10:37.269Z,1013.51
2019-06-08T11:11:35.048Z,1013.48
2019-06-08T11:12:37.570Z,1013.59
2019-06-08T11:13:35.039Z,1013.57
2019-06-08T11:14:35.032Z,1013.59
2019-06-08T11:15:37.340Z,1013.71
2019-06-08T11:16:35.004Z,1013.69
2019-06-08T11:17:37.749Z,1013.56
2019-06-08T11:18:34.979Z,1013.65
2019-06-08T11:19:37.534Z,1013.67
2019-06-08T11:20:38.074Z,1013.71
2019-06-08T11:21:34.939Z,1013.71
2019-06-08T11:22:34.958Z,1013.74
2019-06-08T11:23:34.908Z,1013.76
2019-06-08T11:24:34.907Z,1013.74
2019-06-08T11:25:37.541Z,1013.59
2019-06-08T11:26:34.891Z,1013.75
2019-06-08T11:27:34.918Z,1013.76
2019-06-08T11:28:34.880Z,1013.74
2019-06-08T11:29:34.891Z,1013.80
2019-06-08T11:30:34.844Z,1013.85
2019-06-08T11:31:34.910Z,1013.80
2019-06-08T11:32:34.829Z,1013.84
2019-06-08T11:33:34.830Z,1013.78
2019-06-08T11:34:37.463Z,1013.87
2019-06-08T11:35:34.801Z,1013.89
2019-06-08T11:36:34.806Z,1013.89
2019-06-08T11:37:34.760Z,1013.98
2019-06-08T11:38:34.779Z,1013.91
2019-06-08T11:39:34.771Z,1013.96
2019-06-08T11:40:34.750Z,1013.93
2019-06-08T11:41:34.749Z,1014.03
2019-06-08T11:42:34.724Z,1014.01
2019-06-08T11:43:34.784Z,1013.98
2019-06-08T11:44:34.710Z,1014.02
2019-06-08T11:45:34.677Z,1014.05
2019-06-08T11:46:34.666Z,1014.20
2019-06-08T11:47:34.671Z,1014.14
2019-06-08T11:48:34.707Z,1014.12
2019-06-08T11:49:34.629Z,1014.09
2019-06-08T11:50:34.609Z,1014.17
2019-06-08T11:51:34.617Z,1014.09
2019-06-08T11:52:34.615Z,1014.13
2019-06-08T11:53:34.595Z,1014.07
2019-06-08T11:54:40.028Z,1014.10
2019-06-08T11:55:35.584Z,1014.16
2019-06-08T11:56:34.550Z,1014.09
2019-06-08T11:57:34.562Z,1014.07
2019-06-08T11:58:34.539Z,1014.10
2019-06-08T11:59:34.542Z,1014.11
2019-06-08T12:00:34.562Z,1014.17
2019-06-08T12:01:34.514Z,1014.19
2019-06-08T12:02:34.492Z,1014.06
2019-06-08T12:03:34.462Z,1014.10
2019-06-08T12:04:34.487Z,1014.11
2019-06-08T12:05:34.479Z,1014.12